Time,TemperatureF,DewpointF,PressureIn,WindDirection,WindDirectionDegrees,WindSpeedMPH,WindSpeedGustMPH,Humidity,HourlyPrecipIn,Conditions,Clouds,dailyrainin,SoftwareType,DateUTC
2013-01-18 00:05:00,43.8,34.3,30.19,ESE,115,0.0,0.0,69,0.00,,,0.00,Wunderground v.1.15,2013-01-18 08:05:00,
2013-01-18 00:14:00,43.7,34.2,30.19,ESE,115,0.0,0.0,69,0.00,,,0.00,Wunderground v.1.15,2013-01-18 08:14:00,
2013-01-18 00:20:00,43.6,34.5,30.19,ESE,115,0.0,0.0,70,0.00,,,0.00,Wunderground v.1.15,2013-01-18 08:20:00,
2013-01-18 00:35:00,43.2,34.4,30.19,ESE,115,0.0,0.0,71,0.00,,,0.00,Wunderground v.1.15,2013-01-18 08:35:00,
2013-01-18 01:05:00,43.3,34.2,30.19,ESE,115,0.0,0.0,70,0.00,,,0.00,Wunderground v.1.15,2013-01-18 09:05:00,
2013-01-18 01:20:00,43.6,34.5,30.19,ESE,115,0.0,0.0,70,0.00,,,0.00,Wunderground v.1.15,2013-01-18 09:20:00,
2013-01-18 01:30:00,43.3,34.2,30.19,ESE,115,0.0,0.0,70,0.00,,,0.00,Wunderground v.1.15,2013-01-18 09:30:00,
2013-01-18 01:40:00,43.3,34.2,30.19,ESE,115,0.0,0.0,70,0.00,,,0.00,Wunderground v.1.15,2013-01-18 09:40:00,
2013-01-18 01:49:00,43.1,34.3,30.19,ESE,115,0.0,0.0,71,0.00,,,0.00,Wunderground v.1.15,2013-01-18 09:49:00,
2013-01-18 01:54:00,43.0,34.2,30.19,ESE,115,0.0,0.0,71,0.00,,,0.00,Wunderground v.1.15,2013-01-18 09:54:00,
2013-01-18 02:00:00,42.9,34.1,30.19,ESE,115,0.0,0.0,71,0.00,,,0.00,Wunderground v.1.15,2013-01-18 10:00:00,
2013-01-18 02:05:00,42.9,34.1,30.19,ESE,115,0.0,0.0,71,0.00,,,0.00,Wunderground v.1.15,2013-01-18 10:05:00,
2013-01-18 02:15:00,43.0,33.9,30.19,ESE,115,0.0,0.0,70,0.00,,,0.00,Wunderground v.1.15,2013-01-18 10:15:00,
2013-01-18 02:20:00,42.9,34.1,30.19,ESE,115,0.0,0.0,71,0.00,,,0.00,Wunderground v.1.15,2013-01-18 10:20:00,
2013-01-18 02:30:00,42.5,33.8,30.19,ESE,115,0.0,0.0,71,0.00,,,0.00,Wunderground v.1.15,2013-01-18 10:30:00,
2013-01-18 02:40:00,42.8,33.7,30.19,ESE,115,0.0,0.0,70,0.00,,,0.00,Wunderground v.1.15,2013-01-18 10:40:00,
2013-01-18 02:50:00,42.7,33.9,30.19,ESE,115,0.0,0.0,71,0.00,,,0.00,Wunderground v.1.15,2013-01-18 10:50:00,
2013-01-18 03:00:00,42.3,33.9,30.19,ESE,115,0.0,0.0,72,0.00,,,0.00,Wunderground v.1.15,2013-01-18 11:00:00,
2013-01-18 03:10:00,41.9,33.9,30.19,ESE,115,0.0,0.0,73,0.00,,,0.00,Wunderground v.1.15,2013-01-18 11:10:00,
2013-01-18 03:15:00,42.0,34.0,30.19,ESE,115,0.0,0.0,73,0.00,,,0.00,Wunderground v.1.15,2013-01-18 11:15:00,
2013-01-18 03:20:00,42.4,34.0,30.19,ESE,115,0.0,0.0,72,0.00,,,0.00,Wunderground v.1.15,2013-01-18 11:20:00,
2013-01-18 03:34:00,42.8,34.0,30.19,ESE,115,0.0,0.0,71,0.00,,,0.00,Wunderground v.1.15,2013-01-18 11:34:00,
2013-01-18 03:40:00,42.7,33.9,30.19,ESE,115,0.0,0.0,71,0.00,,,0.00,Wunderground v.1.15,2013-01-18 11:40:00,
2013-01-18 03:50:00,42.6,33.9,30.19,ESE,115,0.0,0.0,71,0.00,,,0.00,Wunderground v.1.15,2013-01-18 11:50:00,
2013-01-18 04:00:00,42.3,33.9,30.19,ESE,115,0.0,0.0,72,0.00,,,0.00,Wunderground v.1.15,2013-01-18 12:00:00,
2013-01-18 04:05:00,42.2,33.8,30.19,ESE,115,0.0,0.0,72,0.00,,,0.00,Wunderground v.1.15,2013-01-18 12:05:00,
2013-01-18 04:15:00,41.3,33.6,30.19,ESE,115,0.0,0.0,74,0.00,,,0.00,Wunderground v.1.15,2013-01-18 12:15:00,
2013-01-18 04:20:00,40.9,33.6,30.19,ESE,115,0.0,0.0,75,0.00,,,0.00,Wunderground v.1.15,2013-01-18 12:20:00,
2013-01-18 04:30:00,40.6,33.6,30.19,ESE,115,0.0,0.0,76,0.00,,,0.00,Wunderground v.1.15,2013-01-18 12:30:00,
2013-01-18 04:40:00,41.0,34.0,30.19,ESE,115,0.0,0.0,76,0.00,,,0.00,Wunderground v.1.15,2013-01-18 12:40:00,
2013-01-18 04:50:00,41.2,33.9,30.19,ESE,115,0.0,0.0,75,0.00,,,0.00,Wunderground v.1.15,2013-01-18 12:50:00,
2013-01-18 04:55:00,41.2,34.2,30.19,ESE,115,0.0,0.0,76,0.00,,,0.00,Wunderground v.1.15,2013-01-18 12:55:00,
2013-01-18 05:00:00,41.1,33.8,30.19,ESE,115,0.0,0.0,75,0.00,,,0.00,Wunderground v.1.15,2013-01-18 13:00:00,
2013-01-18 05:10:00,40.7,33.7,30.19,ESE,115,0.0,0.0,76,0.00,,,0.00,Wunderground v.1.15,2013-01-18 13:10:00,
2013-01-18 05:20:00,39.9,33.3,30.19,ESE,115,0.0,0.0,77,0.00,,,0.00,Wunderground v.1.15,2013-01-18 13:20:00,
2013-01-18 05:30:00,39.1,33.1,30.19,ESE,115,0.0,0.0,79,0.00,,,0.00,Wunderground v.1.15,2013-01-18 13:30:00,
2013-01-18 05:35:00,38.7,33.1,30.19,ESE,115,0.0,0.0,80,0.00,,,0.00,Wunderground v.1.15,2013-01-18 13:35:00,
2013-01-18 05:45:00,39.1,33.5,30.19,ESE,115,0.0,0.0,80,0.00,,,0.00,Wunderground v.1.15,2013-01-18 13:45:00,
2013-01-18 05:50:00,39.5,33.8,30.19,ESE,115,0.0,0.0,80,0.00,,,0.00,Wunderground v.1.15,2013-01-18 13:50:00,
2013-01-18 05:55:00,39.9,33.9,30.19,ESE,115,0.0,0.0,79,0.00,,,0.00,Wunderground v.1.15,2013-01-18 13:55:00,
2013-01-18 06:05:00,40.4,34.1,30.19,ESE,115,0.0,0.0,78,0.00,,,0.00,Wunderground v.1.15,2013-01-18 14:05:00,
2013-01-18 06:14:00,40.2,34.2,30.19,ESE,115,0.0,0.0,79,0.00,,,0.00,Wunderground v.1.15,2013-01-18 14:14:00,
2013-01-18 06:20:00,40.6,34.9,30.19,ESE,115,0.0,0.0,80,0.00,,,0.00,Wunderground v.1.15,2013-01-18 14:20:00,
2013-01-18 06:30:00,40.5,34.2,30.20,NE,40,0.0,0.0,78,0.00,,,0.00,Wunderground v.1.15,2013-01-18 14:30:00,
2013-01-18 06:40:00,40.2,34.2,30.20,SSE,153,0.0,0.0,79,0.00,,,0.00,Wunderground v.1.15,2013-01-18 14:40:00,
2013-01-18 06:45:00,39.9,34.2,30.20,NE,49,0.0,1.0,80,0.00,,,0.00,Wunderground v.1.15,2013-01-18 14:45:00,
2013-01-18 06:55:00,40.6,34.9,30.20,South,188,0.0,0.0,80,0.00,,,0.00,Wunderground v.1.15,2013-01-18 14:55:00,
2013-01-18 07:00:00,40.8,34.8,30.20,South,169,0.0,0.0,79,0.00,,,0.00,Wunderground v.1.15,2013-01-18 15:00:00,
2013-01-18 07:05:00,41.1,34.8,30.20,East,96,0.0,0.0,78,0.00,,,0.00,Wunderground v.1.15,2013-01-18 15:05:00,
2013-01-18 07:14:00,41.5,34.8,30.20,East,96,0.0,0.0,77,0.00,,,0.00,Wunderground v.1.15,2013-01-18 15:14:00,
2013-01-18 07:20:00,41.3,34.6,30.20,East,96,0.0,0.0,77,0.00,,,0.00,Wunderground v.1.15,2013-01-18 15:20:00,
2013-01-18 07:30:00,40.6,34.3,30.20,East,96,0.0,0.0,78,0.00,,,0.00,Wunderground v.1.15,2013-01-18 15:30:00,
2013-01-18 07:44:00,40.2,33.9,30.20,East,96,0.0,0.0,78,0.00,,,0.00,Wunderground v.1.15,2013-01-18 15:44:00,
2013-01-18 07:50:00,40.0,33.7,30.21,East,96,0.0,0.0,78,0.00,,,0.00,Wunderground v.1.15,2013-01-18 15:50:00,
2013-01-18 08:05:00,39.4,33.7,30.21,East,96,0.0,0.0,80,0.00,,,0.00,Wunderground v.1.15,2013-01-18 16:05:00,
2013-01-18 08:10:00,39.8,34.4,30.21,East,96,0.0,0.0,81,0.00,,,0.00,Wunderground v.1.15,2013-01-18 16:10:00,
2013-01-18 08:20:00,40.8,35.1,30.22,East,96,0.0,0.0,80,0.00,,,0.00,Wunderground v.1.15,2013-01-18 16:20:00,
2013-01-18 08:30:00,41.8,35.8,30.22,East,96,0.0,0.0,79,0.00,,,0.00,Wunderground v.1.15,2013-01-18 16:30:00,
2013-01-18 08:40:00,42.9,36.8,30.22,East,96,0.0,0.0,79,0.00,,,0.00,Wunderground v.1.15,2013-01-18 16:40:00,
2013-01-18 08:50:00,43.9,36.8,30.23,East,96,0.0,0.0,76,0.00,,,0.00,Wunderground v.1.15,2013-01-18 16:50:00,
2013-01-18 09:05:00,45.1,37.3,30.23,East,96,0.0,0.0,74,0.00,,,0.00,Wunderground v.1.15,2013-01-18 17:05:00,
2013-01-18 09:10:00,45.8,37.6,30.23,East,96,0.0,0.0,73,0.00,,,0.00,Wunderground v.1.15,2013-01-18 17:10:00,
2013-01-18 09:15:00,46.2,37.7,30.23,East,96,0.0,0.0,72,0.00,,,0.00,Wunderground v.1.15,2013-01-18 17:15:00,
2013-01-18 09:25:00,46.9,37.3,30.24,East,96,0.0,0.0,69,0.00,,,0.00,Wunderground v.1.15,2013-01-18 17:25:00,
2013-01-18 09:35:00,47.6,37.9,30.24,East,96,0.0,0.0,69,0.00,,,0.00,Wunderground v.1.15,2013-01-18 17:35:00,
2013-01-18 09:50:00,49.9,38.6,30.24,East,96,1.0,1.0,65,0.00,,,0.00,Wunderground v.1.15,2013-01-18 17:50:00,
2013-01-18 09:55:00,50.0,39.1,30.24,East,96,0.0,1.0,66,0.00,,,0.00,Wunderground v.1.15,2013-01-18 17:55:00,
2013-01-18 10:05:00,51.2,39.0,30.24,East,96,0.0,2.0,63,0.00,,,0.00,Wunderground v.1.15,2013-01-18 18:05:00,
2013-01-18 10:10:00,52.0,39.0,30.24,East,89,1.0,1.0,61,0.00,,,0.00,Wunderground v.1.15,2013-01-18 18:10:00,
2013-01-18 10:24:00,53.9,39.5,30.24,East,89,1.0,1.0,58,0.00,,,0.00,Wunderground v.1.15,2013-01-18 18:24:00,
2013-01-18 10:30:00,54.6,39.2,30.24,East,89,0.0,0.0,56,0.00,,,0.00,Wunderground v.1.15,2013-01-18 18:30:00,
2013-01-18 10:35:00,55.2,39.3,30.24,East,89,0.0,0.0,55,0.00,,,0.00,Wunderground v.1.15,2013-01-18 18:35:00,
2013-01-18 10:45:00,55.8,37.9,30.24,East,88,1.0,3.0,51,0.00,,,0.00,Wunderground v.1.15,2013-01-18 18:45:00,
2013-01-18 10:55:00,56.1,37.7,30.23,East,89,1.0,1.0,50,0.00,,,0.00,Wunderground v.1.15,2013-01-18 18:55:00,
2013-01-18 11:00:00,56.1,38.2,30.23,East,88,1.0,2.0,51,0.00,,,0.00,Wunderground v.1.15,2013-01-18 19:00:00,
2013-01-18 11:10:00,56.1,38.2,30.22,ESE,102,2.0,2.0,51,0.00,,,0.00,Wunderground v.1.15,2013-01-18 19:10:00,
2013-01-18 11:25:00,57.7,38.1,30.22,East,100,1.0,1.0,48,0.00,,,0.00,Wunderground v.1.15,2013-01-18 19:25:00,
2013-01-18 11:30:00,58.0,37.3,30.21,ENE,60,1.0,4.0,46,0.00,,,0.00,Wunderground v.1.15,2013-01-18 19:30:00,
2013-01-18 11:45:00,59.4,36.3,30.21,East,86,1.0,2.0,42,0.00,,,0.00,Wunderground v.1.15,2013-01-18 19:45:00,
2013-01-18 11:50:00,59.6,36.5,30.20,ENE,76,2.0,2.0,42,0.00,,,0.00,Wunderground v.1.15,2013-01-18 19:50:00,
2013-01-18 12:05:00,60.0,36.2,30.19,East,85,3.0,3.0,41,0.00,,,0.00,Wunderground v.1.15,2013-01-18 20:05:00,
2013-01-18 12:15:00,60.4,36.6,30.19,ESE,116,3.0,3.0,41,0.00,,,0.00,Wunderground v.1.15,2013-01-18 20:15:00,
2013-01-18 12:20:00,60.8,36.9,30.19,ENE,74,2.0,2.0,41,0.00,,,0.00,Wunderground v.1.15,2013-01-18 20:20:00,
2013-01-18 12:25:00,61.2,36.7,30.18,NE,48,2.0,11.0,40,0.00,,,0.00,Wunderground v.1.15,2013-01-18 20:25:00,
2013-01-18 12:30:00,61.0,35.8,30.18,East,84,3.0,3.0,39,0.00,,,0.00,Wunderground v.1.15,2013-01-18 20:30:00,
2013-01-18 12:40:00,61.2,35.4,30.18,ENE,70,3.0,5.0,38,0.00,,,0.00,Wunderground v.1.15,2013-01-18 20:40:00,
2013-01-18 12:50:00,60.6,34.8,30.17,ENE,78,5.0,5.0,38,0.00,,,0.00,Wunderground v.1.15,2013-01-18 20:50:00,
2013-01-18 12:55:00,60.8,34.3,30.17,ESE,120,4.0,6.0,37,0.00,,,0.00,Wunderground v.1.15,2013-01-18 20:55:00,
2013-01-18 13:05:00,60.7,32.9,30.17,NE,47,5.0,7.0,35,0.00,,,0.00,Wunderground v.1.15,2013-01-18 21:05:00,
2013-01-18 13:15:00,60.8,33.7,30.17,ESE,123,4.0,4.0,36,0.00,,,0.00,Wunderground v.1.15,2013-01-18 21:15:00,
2013-01-18 13:20:00,61.4,34.2,30.17,ESE,111,4.0,7.0,36,0.00,,,0.00,Wunderground v.1.15,2013-01-18 21:20:00,
2013-01-18 13:25:00,61.6,32.9,30.17,SSE,153,4.0,7.0,34,0.00,,,0.00,Wunderground v.1.15,2013-01-18 21:25:00,
2013-01-18 13:30:00,61.5,32.1,30.17,ESE,116,4.0,4.0,33,0.00,,,0.00,Wunderground v.1.15,2013-01-18 21:30:00,
2013-01-18 13:40:00,62.0,33.3,30.16,SE,133,4.0,5.0,34,0.00,,,0.00,Wunderground v.1.15,2013-01-18 21:40:00,
2013-01-18 13:55:00,62.5,33.7,30.16,NE,40,3.0,3.0,34,0.00,,,0.00,Wunderground v.1.15,2013-01-18 21:55:00,
2013-01-18 14:00:00,62.6,33.1,30.16,ENE,73,3.0,5.0,33,0.00,,,0.00,Wunderground v.1.15,2013-01-18 22:00:00,
2013-01-18 14:15:00,62.1,33.4,30.16,East,93,3.0,3.0,34,0.00,,,0.00,Wunderground v.1.15,2013-01-18 22:15:00,
2013-01-18 14:25:00,62.7,33.2,30.16,ESE,103,2.0,2.0,33,0.00,,,0.00,Wunderground v.1.15,2013-01-18 22:25:00,
2013-01-18 14:35:00,62.7,33.2,30.15,East,80,2.0,4.0,33,0.00,,,0.00,Wunderground v.1.15,2013-01-18 22:35:00,
2013-01-18 14:40:00,62.7,33.9,30.15,East,85,2.0,3.0,34,0.00,,,0.00,Wunderground v.1.15,2013-01-18 22:40:00,
2013-01-18 15:04:00,62.5,34.5,30.15,ESE,117,2.0,4.0,35,0.00,,,0.00,Wunderground v.1.15,2013-01-18 23:04:00,
2013-01-18 15:10:00,62.8,35.4,30.15,ESE,123,1.0,1.0,36,0.00,,,0.00,Wunderground v.1.15,2013-01-18 23:10:00,
2013-01-18 15:20:00,62.5,35.2,30.15,East,92,2.0,2.0,36,0.00,,,0.00,Wunderground v.1.15,2013-01-18 23:20:00,
2013-01-18 15:30:00,62.0,34.7,30.15,ENE,77,3.0,3.0,36,0.00,,,0.00,Wunderground v.1.15,2013-01-18 23:30:00,
2013-01-18 15:50:00,61.0,35.8,30.14,ESE,120,3.0,3.0,39,0.00,,,0.00,Wunderground v.1.15,2013-01-18 23:50:00,
2013-01-18 15:59:00,60.5,35.4,30.15,East,99,2.0,4.0,39,0.00,,,0.00,Wunderground v.1.15,2013-01-18 23:59:00,
2013-01-18 16:05:00,60.1,34.4,30.15,ESE,108,3.0,4.0,38,0.00,,,0.00,Wunderground v.1.15,2013-01-19 00:05:00,
2013-01-18 16:10:00,60.0,35.0,30.15,East,81,2.0,3.0,39,0.00,,,0.00,Wunderground v.1.15,2013-01-19 00:10:00,
2013-01-18 16:20:00,59.4,33.8,30.15,ESE,111,4.0,5.0,38,0.00,,,0.00,Wunderground v.1.15,2013-01-19 00:20:00,
2013-01-18 16:30:00,58.9,32.7,30.15,ESE,106,3.0,5.0,37,0.00,,,0.00,Wunderground v.1.15,2013-01-19 00:30:00,
2013-01-18 16:40:00,58.4,33.5,30.15,SSE,158,3.0,3.0,39,0.00,,,0.00,Wunderground v.1.15,2013-01-19 00:40:00,
2013-01-18 16:50:00,57.5,34.0,30.15,SSE,160,2.0,2.0,41,0.00,,,0.00,Wunderground v.1.15,2013-01-19 00:50:00,
2013-01-18 17:00:00,56.6,33.8,30.15,South,169,3.0,3.0,42,0.00,,,0.00,Wunderground v.1.15,2013-01-19 01:00:00,
2013-01-18 17:10:00,55.9,33.1,30.15,South,179,5.0,5.0,42,0.00,,,0.00,Wunderground v.1.15,2013-01-19 01:10:00,
2013-01-18 17:40:00,54.2,33.9,30.16,South,173,4.0,4.0,46,0.00,,,0.00,Wunderground v.1.15,2013-01-19 01:40:00,
2013-01-18 17:50:00,53.8,33.5,30.16,SSE,148,3.0,3.0,46,0.00,,,0.00,Wunderground v.1.15,2013-01-19 01:50:00,
2013-01-18 18:00:00,53.4,34.2,30.16,SSE,153,3.0,4.0,48,0.00,,,0.00,Wunderground v.1.15,2013-01-19 02:00:00,
2013-01-18 18:15:00,53.1,33.4,30.16,SE,138,4.0,4.0,47,0.00,,,0.00,Wunderground v.1.15,2013-01-19 02:15:00,
2013-01-18 18:30:00,52.6,32.9,30.16,SSE,159,1.0,1.0,47,0.00,,,0.00,Wunderground v.1.15,2013-01-19 02:30:00,
2013-01-18 18:40:00,52.5,32.8,30.16,SSE,168,2.0,2.0,47,0.00,,,0.00,Wunderground v.1.15,2013-01-19 02:40:00,
2013-01-18 18:45:00,52.6,32.9,30.16,South,172,2.0,2.0,47,0.00,,,0.00,Wunderground v.1.15,2013-01-19 02:45:00,
2013-01-18 18:50:00,52.6,32.4,30.16,South,170,2.0,4.0,46,0.00,,,0.00,Wunderground v.1.15,2013-01-19 02:50:00,
2013-01-18 19:15:00,52.4,32.7,30.17,South,183,2.0,3.0,47,0.00,,,0.00,Wunderground v.1.15,2013-01-19 03:15:00,
2013-01-18 19:25:00,52.3,33.2,30.17,SE,144,2.0,2.0,48,0.00,,,0.00,Wunderground v.1.15,2013-01-19 03:25:00,
2013-01-18 19:40:00,51.9,33.8,30.16,SSE,165,1.0,1.0,50,0.00,,,0.00,Wunderground v.1.15,2013-01-19 03:40:00,
2013-01-18 19:50:00,51.4,33.9,30.16,SE,139,0.0,0.0,51,0.00,,,0.00,Wunderground v.1.15,2013-01-19 03:50:00,
2013-01-18 20:04:00,51.2,33.7,30.17,SSE,155,0.0,0.0,51,0.00,,,0.00,Wunderground v.1.15,2013-01-19 04:04:00,
2013-01-18 20:15:00,51.1,34.1,30.17,SSE,155,0.0,0.0,52,0.00,,,0.00,Wunderground v.1.15,2013-01-19 04:15:00,
2013-01-18 20:24:00,50.8,34.3,30.16,SSE,155,0.0,0.0,53,0.00,,,0.00,Wunderground v.1.15,2013-01-19 04:24:00,
2013-01-18 20:35:00,49.6,34.1,30.17,SSE,155,0.0,0.0,55,0.00,,,0.00,Wunderground v.1.15,2013-01-19 04:35:00,
2013-01-18 20:44:00,49.2,34.6,30.17,SSE,155,0.0,0.0,57,0.00,,,0.00,Wunderground v.1.15,2013-01-19 04:44:00,
2013-01-18 20:55:00,48.8,34.7,30.17,SSE,155,0.0,0.0,58,0.00,,,0.00,Wunderground v.1.15,2013-01-19 04:55:00,
2013-01-18 21:04:00,47.9,34.3,30.17,SSE,155,0.0,1.0,59,0.00,,,0.00,Wunderground v.1.15,2013-01-19 05:04:00,
2013-01-18 21:10:00,47.2,34.4,30.17,SSE,155,0.0,0.0,61,0.00,,,0.00,Wunderground v.1.15,2013-01-19 05:10:00,
2013-01-18 21:15:00,46.9,34.1,30.17,SSE,155,0.0,0.0,61,0.00,,,0.00,Wunderground v.1.15,2013-01-19 05:15:00,
2013-01-18 21:20:00,47.0,34.2,30.17,SSE,155,0.0,0.0,61,0.00,,,0.00,Wunderground v.1.15,2013-01-19 05:20:00,
2013-01-18 21:35:00,46.4,34.1,30.17,SSE,155,0.0,0.0,62,0.00,,,0.00,Wunderground v.1.15,2013-01-19 05:35:00,
2013-01-18 21:55:00,45.4,33.5,30.17,SSE,155,0.0,0.0,63,0.00,,,0.00,Wunderground v.1.15,2013-01-19 05:55:00,
2013-01-18 22:10:00,44.7,33.3,30.17,SSE,155,0.0,0.0,64,0.00,,,0.00,Wunderground v.1.15,2013-01-19 06:10:00,
2013-01-18 22:24:00,44.5,33.1,30.17,SSE,155,0.0,0.0,64,0.00,,,0.00,Wunderground v.1.15,2013-01-19 06:24:00,
2013-01-18 22:45:00,45.1,32.8,30.17,SSE,155,0.0,0.0,62,0.00,,,0.00,Wunderground v.1.15,2013-01-19 06:45:00,
2013-01-18 23:05:00,44.5,31.9,30.18,SSE,155,0.0,0.0,61,0.00,,,0.00,Wunderground v.1.15,2013-01-19 07:05:00,
2013-01-18 23:10:00,44.6,32.0,30.18,SSE,155,0.0,0.0,61,0.00,,,0.00,Wunderground v.1.15,2013-01-19 07:10:00,
2013-01-18 23:20:00,44.5,32.3,30.18,SSE,155,0.0,0.0,62,0.00,,,0.00,Wunderground v.1.15,2013-01-19 07:20:00,
2013-01-18 23:50:00,44.5,31.9,30.18,SSE,155,0.0,0.0,61,0.00,,,0.00,Wunderground v.1.15,2013-01-19 07:50:00,